Airfield :
LOGIN :

Register | Disclaimer

   EN    FR    IT 

 










Legend :    VFR   Marginal VFR   IFR   Intensive IFR   Very Intensive IFR
Visi :
Ceiling :
>= 8 km
>= 3000ft
5 to 8 km
1000 to 3000 ft
1500m to 5 km
500 to 1000 ft
800 to 1500m
200 to 500 ft
< 800m
< 200 ft
Symbols :   Thunderstorms  Fog  Heavy snow  Heavy precipitations  Wind > 20 kt
SIGMETs :     Misc.  Thunderstorms  Icing  Turbulence  Mountain Waves  Volcanic Ashes






- Airport Elevation : 778 ft
- IATA code : BRQ


LKTB - Brno-Turany

CURRENT METAR :
  • 182030Z VRB01KT 3800 BR FEW011 M01/M01 Q1026 R27/591591 NOSIG

EXPIRED METARs :
  • 182000Z 27003KT 250V310 3200 -SN BR FEW002 SCT011 M01/M01 Q1025 R27/591591 NOSIG
  • 181933Z 23002KT 3000 -SN BR FEW002 BKN012 OVC041 M01/M01 Q1026 R27/591591 RMK REG QNH 1023
  • 181900Z 24004KT 2500 -SN BR OVC046 M01/M01 Q1026 R27/591591 NOSIG
  • 181830Z 24004KT 2500 -SN BR SCT005 OVC046 M01/M01 Q1026 R27/591591 NOSIG
  • 181800Z 21002KT 3200 -SN BR BKN005 OVC046 M01/M01 Q1026 R27/591591 TEMPO 2500 SN BR

TAF TAF LKTB
Valid from the 18 at 18:00 until the 20 at 00:00 UTC


181700Z 1818/2000 22008KT 3000 BR BKN040
TEMPO 1818/1900 1200 SN BKN006
PROB30
TEMPO 1818/1821 0800 SN OVC002
BECMG 1900/1902 34008KT
TEMPO 1902/2000 2500 -SN BR BKN005



MET'MAP, your aeronautical weather chart ! - Copyright ORBIFLY December 2007 - Disclaimer

ORBIFLY MET'MAP TEAM :

Programming & Development : Alexandra Zaïnal
Concept & original design : Baudouin d'Aumeries
Assistance for programming : Marc-Olivier Méhu
Technical & hardware support : Manuel Goepfert

Contact : metmap@orbifly.com




SOURCES & CREDITS :

   NOAA